Station info - map view · info · telemetry · weather · raw · status · beacons · messages · bulletins · browse · moving · my account
Callsign, ship name or locator: Clear       
It is possible to search using wildcards (*?) after a prefix. Example: OH*
APRS station N0YHR - show graphs
Map loading...
Comment: On the road again
Mic-E message: En route
Location: 28°45.76' N 81°52.82' W - locator EL98BS43IA - show map - static map
0.6 miles West bearing 279° from Hawthorne, Lake County, Florida, United States [?]
4.6 miles West bearing 291° from Yalaha, Lake County, Florida, United States
66.3 miles Northeast bearing 32° from Tampa, Hillsborough County, Florida, United States
84.0 miles Northeast bearing 35° from Saint Petersburg, Pinellas County, Florida, United States
Last position: 2017-10-21 15:30:28 EDT (27s ago)
2017-10-21 15:30:28 EDT local time at Hawthorne, United States [?]
Altitude: 108 ft
Course: 43°
Speed: 15 MPH
Device: Kenwood: TM-D710 (rig)
Last path: N0YHR>RX4U7V via N4FLA-3*,WC4PEM-14*,WIDE2*,qAR,W4KBW (good)
Positions stored: 85326
Packet rate: 45 seconds between packets on average during 2254 seconds.
Other SSIDs: N0YHR-10 N0YHR-5 N0YHR-9
Stations near current position of N0YHR - show more
callsign distance last heard - EDT      callsign distance last heard - EDT
KK4MGE-91.6 miles 143°2017-10-16 20:48:10 EW61204.8 miles 165°2017-10-21 15:30:03
K9SSL-56.0 miles 354°2017-10-03 21:45:14 K9SSL-106.0 miles 354°2017-10-05 18:37:41
N2KEY6.4 miles 286°2017-10-11 16:33:38 KJ4TUW6.6 miles 342°2017-10-12 14:48:01
KJ4TUW-46.6 miles 342°2017-10-21 14:01:18 KB2NOM6.7 miles 286°2017-10-21 10:54:47
KJ4TUW-16.8 miles 343°2017-10-21 15:23:01 CW48287.2 miles 96°2017-10-21 15:24:01
KJ4TJD B8.1 miles 55°2017-10-21 15:16:50 KJ4TJD-B8.1 miles 55°2017-10-21 15:16:35
AC2KW-58.1 miles 55°2017-10-21 09:57:52 K4QR-i8.6 miles 311°2017-10-18 17:24:37
WB2UTI-138.7 miles 325°2017-09-25 16:59:06 FW13518.7 miles 315°2017-10-21 15:22:19
EW55329.0 miles 307°2017-10-21 15:30:13 EW01619.2 miles 327°2017-10-21 15:30:04
FW08659.2 miles 328°2017-10-21 15:28:39 147.000-a9.7 miles 134°2017-10-21 14:52:17
Stations which heard N0YHR directly on radio –
callsign pkts first heard - EDT last heard longest (tx => rx) longest at - EDT
K4LKL-10 2 2017-10-21 10:39:22 2017-10-21 14:36:44 EL88VE > EL98AB 16.8 miles 126° 2017-10-21 10:39:22
WC4PEM-9 15 2017-10-21 09:42:35 2017-10-21 15:20:38 EL88WS > EL98CE 43.1 miles 154° 2017-10-21 09:42:35
KD4MOJ-5 86 2017-10-05 16:50:11 2017-10-21 06:25:24 EM70UL > EM70PO 27.1 miles 289° 2017-10-15 09:30:59
KG4YZY-11 2 2017-10-21 10:13:13 2017-10-21 10:22:56 EL88UI > EL88PG 24.0 miles 260° 2017-10-21 10:13:13
WC4PEM-10 21 2017-10-21 10:37:07 2017-10-21 14:41:11 EL88WG > EL97CV 32.4 miles 142° 2017-10-21 14:41:11
WC4PEM-14 5 2017-10-21 10:46:51 2017-10-21 15:22:49 EL98AQ > EL98EG 35.2 miles 151° 2017-10-21 15:22:49
KD4MOJ-7 196 2017-10-05 16:49:27 2017-10-21 06:57:30 EM70QO > EM70VO 22.4 miles 89° 2017-10-06 12:30:00
KC4HAY-1 4 2017-10-21 09:57:21 2017-10-21 10:09:41 EL88UJ > EL88VM 10.5 miles 49° 2017-10-21 10:09:41
K4OZS-10 33 2017-10-21 08:57:34 2017-10-21 09:33:29 EL89TN > EL89XC 33.4 miles 151° 2017-10-21 08:57:34
AE4S 76 2017-10-01 12:13:07 2017-10-21 06:39:49 EM70SL > EM70UL 10.4 miles 99° 2017-10-18 21:18:51
N4FLA-3 16 2017-10-21 10:05:08 2017-10-21 15:30:21 EL88UL > EL98CP 32.1 miles 67° 2017-10-21 10:05:08
W4TKB 41 2017-10-21 09:51:37 2017-10-21 15:15:05 EL98AO > EL88VI 23.7 miles 220° 2017-10-21 15:15:05
WC4PEM-8 75 2017-10-21 10:07:02 2017-10-21 15:00:11 EL88UK > EL88XD 25.3 miles 140° 2017-10-21 10:17:02
WC4PEM-7 1 2017-10-21 14:15:57 2017-10-21 14:15:57 EL88WC > EL97AV 16.1 miles 141° 2017-10-21 14:15:57
WB2UTI 1 2017-10-21 09:35:22 2017-10-21 09:35:22 EL88WV > EL88XV 5.6 miles 93° 2017-10-21 09:35:22
N4SVC-1 22 2017-10-21 07:37:02 2017-10-21 07:55:11 EM80JI > EM80MG 14.4 miles 110° 2017-10-21 07:37:02
W4DFU-3 16 2017-10-21 08:50:45 2017-10-21 09:04:09 EL89UK > EL89TP 13.6 miles 340° 2017-10-21 09:04:09
KK4ONE-2 1 2017-10-21 14:48:47 2017-10-21 14:48:47 EL88WF > EL88WH 6.3 miles 354° 2017-10-21 14:48:47
W4RPT-1 54 2017-10-21 09:41:17 2017-10-21 15:19:02 EL88TF > EL88VM 21.4 miles 29° 2017-10-21 10:24:47
W0DLM-10 3 2017-10-21 10:20:09 2017-10-21 10:26:03 EL88UF > EL88TE 4.4 miles 233° 2017-10-21 10:26:03
N4HHM 1 2017-10-20 06:55:34 2017-10-20 06:55:34 EM70RO > EM70DI 66.9 miles 257° 2017-10-20 06:55:34

Only position packets which were originated by the station are shown here. The range statistics show some extra long hops, because some digipeaters do not correctly add themselves to the digipeater path. Please check the raw packets.
About this site
This page shows real-time information collected from the Automatic Position Reporting System Internet network (APRS-IS). APRS is used by amateur (ham) radio operators to transmit real-time position information, weather data, telemetry and messages over the radio. A vehicle equipped with a GPS receiver, a VHF transmitter or HF transceiver and a small computer device called a tracker transmits it's location, speed and course in a small data packet, which is then received by a nearby iGate receiving site which forwards the packet on the Internet. Systems connected to the Internet can send information on the APRS-IS without a radio transmitter, or collect and display information transmitted anywhere in the world.
FAQ · Blog · Discussion group · Linking to aprs.fi · AIS sites · Service status · Database statistics · Advertising on aprs.fi · Technical details · API · Change log · Planned changes · Credits and thanks · Terms Of Service · iPhone/iPad APRS